TimeEDT,TemperatureF,Dew PointF,Humidity,Sea Level PressureIn,VisibilityMPH,Wind Direction,Wind SpeedMPH,Gust SpeedMPH,PrecipitationIn,Events,Conditions,WindDirDegrees,DateUTC
12:15 AM,65.5,64.8,98,30.25,5.0,Calm,Calm,-,N/A,Rain,Heavy Rain,0,2013-07-06 04:15:00
12:35 AM,65.3,64.4,97,30.25,2.0,Calm,Calm,-,N/A,Rain,Heavy Rain,0,2013-07-06 04:35:00
12:55 AM,64.9,64.4,98,30.25,2.5,Calm,Calm,-,N/A,Rain,Heavy Rain,0,2013-07-06 04:55:00
1:15 AM,64.9,64.2,98,30.25,5.0,East,3.5,-,N/A,Rain,Rain,90,2013-07-06 05:15:00
1:35 AM,64.8,63.9,97,30.25,10.0,Calm,Calm,-,N/A,Rain,Light Rain,0,2013-07-06 05:35:00
1:55 AM,65.3,64.4,97,30.24,10.0,Calm,Calm,-,N/A,Rain,Light Rain,0,2013-07-06 05:55:00
2:15 AM,65.1,64.4,98,30.23,10.0,Calm,Calm,-,N/A,,Clear,0,2013-07-06 06:15:00
2:35 AM,64.9,64.4,98,30.23,10.0,Calm,Calm,-,N/A,,Mostly Cloudy,0,2013-07-06 06:35:00
2:55 AM,64.4,64.0,99,30.23,10.0,Calm,Calm,-,N/A,,Mostly Cloudy,0,2013-07-06 06:55:00
3:15 AM,64.4,63.9,98,30.23,4.0,Calm,Calm,-,N/A,Rain,Light Rain,0,2013-07-06 07:15:00
3:35 AM,64.6,64.0,98,30.22,7.0,Calm,Calm,-,N/A,,Light Drizzle,0,2013-07-06 07:35:00
3:55 AM,64.4,63.9,98,30.22,10.0,Calm,Calm,-,N/A,,Overcast,0,2013-07-06 07:55:00
4:15 AM,64.2,63.7,98,30.22,10.0,Calm,Calm,-,N/A,Rain,Rain,0,2013-07-06 08:15:00
4:35 AM,64.0,63.5,98,30.22,10.0,Calm,Calm,-,N/A,,Drizzle,0,2013-07-06 08:35:00
4:55 AM,64.0,63.5,98,30.21,10.0,Calm,Calm,-,N/A,,Drizzle,0,2013-07-06 08:55:00
5:15 AM,63.9,63.5,99,30.21,10.0,Calm,Calm,-,N/A,Rain,Light Rain,0,2013-07-06 09:15:00
5:35 AM,63.9,63.5,99,30.21,7.0,Calm,Calm,-,N/A,Rain,Rain,0,2013-07-06 09:35:00
5:55 AM,63.9,63.1,97,30.22,5.0,Calm,Calm,-,N/A,Rain,Rain,0,2013-07-06 09:55:00
6:15 AM,63.7,63.0,97,30.22,7.0,Calm,Calm,-,N/A,Rain,Light Rain,0,2013-07-06 10:15:00
6:35 AM,63.7,63.0,97,30.23,5.0,Calm,Calm,-,N/A,Rain,Light Rain,0,2013-07-06 10:35:00
6:55 AM,64.0,63.1,97,30.22,5.0,Calm,Calm,-,N/A,Rain,Light Rain,0,2013-07-06 10:55:00
7:15 AM,64.0,63.1,97,30.23,5.0,Calm,Calm,-,N/A,Rain,Rain,0,2013-07-06 11:15:00
7:35 AM,64.0,63.5,98,30.24,7.0,Calm,Calm,-,N/A,,Overcast,0,2013-07-06 11:35:00
7:55 AM,64.4,63.7,98,30.24,10.0,Calm,Calm,-,N/A,,Overcast,0,2013-07-06 11:55:00
8:15 AM,64.4,63.7,98,30.24,4.0,Calm,Calm,-,N/A,Rain,Heavy Rain,0,2013-07-06 12:15:00
8:35 AM,64.8,64.4,99,30.25,4.0,Calm,Calm,-,N/A,Rain,Rain,0,2013-07-06 12:35:00
8:55 AM,64.9,64.6,99,30.25,1.5,Calm,Calm,-,N/A,Rain,Heavy Rain,0,2013-07-06 12:55:00
9:15 AM,65.7,65.3,99,30.25,4.0,Calm,Calm,-,N/A,Rain,Rain,0,2013-07-06 13:15:00
9:35 AM,65.3,65.1,99,30.25,4.0,Calm,Calm,-,N/A,Rain,Light Rain,0,2013-07-06 13:35:00
9:55 AM,66.2,65.8,99,30.25,7.0,Calm,Calm,-,N/A,Rain,Rain,0,2013-07-06 13:55:00
10:15 AM,66.2,66.2,100,30.24,2.5,Calm,Calm,-,N/A,Rain,Light Rain,0,2013-07-06 14:15:00
10:35 AM,68.7,68.4,99,30.24,10.0,Calm,Calm,-,N/A,,Overcast,0,2013-07-06 14:35:00
10:55 AM,68.9,67.8,96,30.25,10.0,South,3.5,-,N/A,,Overcast,170,2013-07-06 14:55:00
11:15 AM,70.7,66.6,87,30.25,10.0,Calm,Calm,-,N/A,,Overcast,0,2013-07-06 15:15:00
11:35 AM,71.2,65.1,81,30.25,10.0,South,4.6,-,N/A,,Overcast,190,2013-07-06 15:35:00
11:55 AM,72.9,63.9,73,30.25,10.0,SSW,3.5,-,N/A,,Mostly Cloudy,200,2013-07-06 15:55:00
12:15 PM,73.8,63.5,70,30.24,10.0,Calm,Calm,-,N/A,,Clear,0,2013-07-06 16:15:00
12:35 PM,74.5,63.1,68,30.24,10.0,SSE,4.6,-,N/A,,Mostly Cloudy,150,2013-07-06 16:35:00
12:55 PM,75.2,63.3,66,30.23,10.0,South,4.6,-,N/A,,Scattered Clouds,190,2013-07-06 16:55:00
1:15 PM,75.9,64.4,67,30.23,10.0,SW,4.6,-,N/A,,Scattered Clouds,230,2013-07-06 17:15:00
1:35 PM,76.1,63.7,65,30.22,10.0,Calm,Calm,-,N/A,,Scattered Clouds,0,2013-07-06 17:35:00
1:55 PM,77.0,64.2,65,30.21,10.0,ESE,6.9,-,N/A,,Mostly Cloudy,110,2013-07-06 17:55:00
2:15 PM,75.2,63.7,67,30.21,10.0,Calm,Calm,-,N/A,Rain,Light Rain,0,2013-07-06 18:15:00
2:35 PM,75.9,64.9,69,30.21,10.0,South,3.5,-,N/A,,Overcast,180,2013-07-06 18:35:00
2:55 PM,75.6,64.8,69,30.20,10.0,SSE,3.5,-,N/A,,Overcast,160,2013-07-06 18:55:00
3:15 PM,74.1,66.0,76,30.19,7.0,Calm,Calm,-,N/A,,Overcast,0,2013-07-06 19:15:00
3:35 PM,75.0,64.4,69,30.18,10.0,Calm,Calm,-,N/A,,Overcast,0,2013-07-06 19:35:00
3:55 PM,75.4,65.8,72,30.18,10.0,Calm,Calm,-,N/A,,Overcast,0,2013-07-06 19:55:00
4:15 PM,73.2,66.0,78,30.18,5.0,Calm,Calm,-,N/A,Rain,Rain,0,2013-07-06 20:15:00
4:35 PM,75.4,66.2,73,30.18,10.0,WSW,4.6,-,N/A,,Mostly Cloudy,240,2013-07-06 20:35:00
4:55 PM,75.4,65.7,72,30.18,10.0,Calm,Calm,-,N/A,,Mostly Cloudy,0,2013-07-06 20:55:00
5:15 PM,74.5,66.2,75,30.18,10.0,Calm,Calm,-,N/A,,Mostly Cloudy,0,2013-07-06 21:15:00
5:35 PM,74.5,65.3,73,30.18,10.0,Calm,Calm,-,N/A,,Mostly Cloudy,0,2013-07-06 21:35:00
5:55 PM,74.3,66.0,75,30.17,10.0,Calm,Calm,-,N/A,,Scattered Clouds,0,2013-07-06 21:55:00
6:15 PM,74.5,66.2,75,30.17,10.0,Calm,Calm,-,N/A,,Mostly Cloudy,0,2013-07-06 22:15:00
6:35 PM,74.5,65.7,74,30.17,10.0,SSE,3.5,-,N/A,,Scattered Clouds,160,2013-07-06 22:35:00
6:55 PM,75.2,66.0,73,30.17,10.0,Calm,Calm,-,N/A,,Clear,0,2013-07-06 22:55:00
7:15 PM,74.7,66.0,74,30.17,10.0,Calm,Calm,-,N/A,,Scattered Clouds,0,2013-07-06 23:15:00
7:35 PM,73.9,67.8,81,30.18,10.0,Calm,Calm,-,N/A,,Scattered Clouds,0,2013-07-06 23:35:00
7:55 PM,72.7,67.3,83,30.18,7.0,Calm,Calm,-,N/A,Rain,Rain,0,2013-07-06 23:55:00
8:15 PM,69.8,67.5,92,30.19,4.0,ESE,3.5,-,N/A,Rain,Light Rain,110,2013-07-07 00:15:00
8:35 PM,68.9,67.3,95,30.19,10.0,Calm,Calm,-,N/A,,Mostly Cloudy,0,2013-07-07 00:35:00
8:55 PM,68.2,67.1,96,30.18,10.0,Calm,Calm,-,N/A,,Mostly Cloudy,0,2013-07-07 00:55:00
9:15 PM,67.6,67.1,98,30.19,10.0,Calm,Calm,-,N/A,,Mostly Cloudy,0,2013-07-07 01:15:00
9:35 PM,67.5,67.1,99,30.20,10.0,Calm,Calm,-,N/A,,Mostly Cloudy,0,2013-07-07 01:35:00
9:55 PM,67.1,66.6,98,30.21,10.0,Calm,Calm,-,N/A,,Scattered Clouds,0,2013-07-07 01:55:00
10:15 PM,67.1,66.4,98,30.21,7.0,Calm,Calm,-,N/A,,Scattered Clouds,0,2013-07-07 02:15:00
10:35 PM,66.9,66.2,98,30.21,7.0,Calm,Calm,-,N/A,,Clear,0,2013-07-07 02:35:00
10:55 PM,66.4,65.7,98,30.21,5.0,Calm,Calm,-,N/A,Rain,Rain,0,2013-07-07 02:55:00
11:15 PM,66.4,65.7,98,30.21,3.0,Calm,Calm,-,N/A,Rain,Heavy Rain,0,2013-07-07 03:15:00
11:35 PM,66.2,65.3,97,30.21,3.0,Calm,Calm,-,N/A,Rain,Rain,0,2013-07-07 03:35:00
11:55 PM,66.2,65.3,97,30.21,3.0,Calm,Calm,-,N/A,Rain,Heavy Rain,0,2013-07-07 03:55:00